LFJL/ETZ METAR and TAF weather

Enter ICAO airport designator
Station Type Date Time Source
LFJL METAR 2021/03/06 04:00 UTC NOAA

LFJL 060400Z AUTO 03009KT CAVOK M03/M06 Q1029 NOSIG


Station Type Date Time Source
LFJL Decoded METAR 2021/03/06 04:00 UTC NOAA

Metz-Nancy-Lorraine, France (LFJL) 48-59N 006-15E
Mar 05, 2021 - 11:00 PM EST / 2021.03.06 0400 UTC
Wind: from the NNE (030 degrees) at 10 MPH (9 KT):0
Visibility: greater than 7 mile(s):0
Temperature: 26 F (-3 C)
Windchill: 15 F (-9 C):1
Dew Point: 21 F (-6 C)
Relative Humidity: 79%
Pressure (altimeter): 30.39 in. Hg (1029 hPa)
ob: LFJL 060400Z AUTO 03009KT CAVOK M03/M06 Q1029 NOSIG
cycle: 4

Station Type Date Time Source
LFJL TAF 2021/03/05 18:21 UTC NOAA

TAF LFJL 051700Z 0518/0618 06012KT CAVOK

Example: see airport list